Observations for ALBENGA, Italy (LIMG)

LIMG 181350Z 11009KT CAVOK 22/01 Q1022  
LIMG 181250Z 11009KT CAVOK 21/02 Q1023  
LIMG 181150Z 12010KT CAVOK 21/02 Q1023  
LIMG 181050Z 11013KT CAVOK 20/02 Q1023  
LIMG 180950Z 10010KT CAVOK 20/05 Q1023  
LIMG 180850Z 12005KT CAVOK 19/06 Q1023  
LIMG 180750Z 10003KT CAVOK 17/08 Q1023  
LIMG 180650Z 00000KT CAVOK 12/08 Q1023  
LIMG 180600Z 00000KT CAVOK 10/07 Q1023
LIMG 171750Z 00000KT CAVOK 15/06 Q1020  
LIMG 171650Z 08006KT CAVOK 18/04 Q1019  
LIMG 171550Z 09009KT CAVOK 19/05 Q1019  
LIMG 171350Z 08010KT CAVOK 19/07 Q1020